Terminal Aerodrome Forecast
Issued by NWS Cleveland, OH

Home | Current Version | Previous Version | Text Only | Print | Product List | Glossary Off
Versions: 1 2 3 4 5 6 7 8 9 10 11 12 13 14 15 16 17 18 19

000
FTUS41 KCLE 240500
TAFMFD
TAF
KMFD 240527Z 2406/2506 03005KT P6SM BKN035
      TEMPO 2406/2409 SCT035
     FM240900 06005KT P6SM SCT250
     FM242200 11008KT P6SM BKN100=

USA.gov is the U.S. government's official web portal to all federal, state and local government web resources and services.